CZ-0039 weather

Municipal Hospital Heliport
Litoměřice, Ústí nad Labem Region, Czechia

Public forecast

Using degrees Celsius for public forecast. Weather courtesy of forecast.io.

Closest aviation weather report (METAR) to Municipal Hospital Heliport

Closest report is Vodochody Airport, 21.7 nm (40.3 km) SSE. Retrieved 2019/10/21 13:00 UTC (41 minutes ago):

LKVO 211300Z VRB02KT 7000 3000W BR FEW007 13/12 Q1019

Closest aviation forecast (TAF) to Municipal Hospital Heliport

Closest forecast is Václav Havel Airport Prague, 26.8 nm (49.7 km) S. Retrieved 2019/10/21 12:26 UTC (1 hour ago):

TAF LKPR 211100Z 2112/2218 24004KT 3000 BR BKN003 BECMG 2112/2114 8000 NSC BECMG 2117/2120 VRB02KT 1500 BR OVC004 BECMG 2121/2200 0200 FG OVC001 TEMPO 2201/2209 0400 FG OVC002 BECMG 2209/2212 3000 BR BKN006 TEMPO 2212/2216 7000 SCT010 BECMG 2216/2218 0200 FG VV001